sensor_id;sensor_type;location;lat;lon;timestamp;P1;durP1;ratioP1;P2;durP2;ratioP2
34405;SDS011;20658;45.630;8.886;2023-07-13T00:02:30;15.77;;;6.57;;
34405;SDS011;20658;45.630;8.886;2023-07-13T00:05:04;21.40;;;7.50;;
34405;SDS011;20658;45.630;8.886;2023-07-13T00:07:40;16.20;;;6.53;;
34405;SDS011;20658;45.630;8.886;2023-07-13T00:10:14;12.00;;;5.15;;
34405;SDS011;20658;45.630;8.886;2023-07-13T00:12:48;12.23;;;6.07;;
34405;SDS011;20658;45.630;8.886;2023-07-13T00:15:26;10.48;;;4.57;;
34405;SDS011;20658;45.630;8.886;2023-07-13T00:18:01;11.20;;;4.78;;
34405;SDS011;20658;45.630;8.886;2023-07-13T00:20:35;13.35;;;4.85;;
34405;SDS011;20658;45.630;8.886;2023-07-13T00:23:10;15.23;;;5.15;;
34405;SDS011;20658;45.630;8.886;2023-07-13T00:25:43;11.40;;;4.88;;
34405;SDS011;20658;45.630;8.886;2023-07-13T00:28:17;9.27;;;4.00;;
34405;SDS011;20658;45.630;8.886;2023-07-13T00:30:51;9.30;;;4.32;;
34405;SDS011;20658;45.630;8.886;2023-07-13T00:33:26;12.50;;;4.32;;
34405;SDS011;20658;45.630;8.886;2023-07-13T00:36:00;13.52;;;4.90;;
34405;SDS011;20658;45.630;8.886;2023-07-13T00:38:35;16.65;;;4.38;;
34405;SDS011;20658;45.630;8.886;2023-07-13T00:41:09;11.90;;;5.75;;
34405;SDS011;20658;45.630;8.886;2023-07-13T00:43:43;14.20;;;6.38;;
34405;SDS011;20658;45.630;8.886;2023-07-13T00:46:21;13.45;;;5.38;;
34405;SDS011;20658;45.630;8.886;2023-07-13T00:48:59;15.43;;;4.55;;
34405;SDS011;20658;45.630;8.886;2023-07-13T00:51:36;13.75;;;4.53;;
34405;SDS011;20658;45.630;8.886;2023-07-13T00:54:19;11.25;;;5.13;;
34405;SDS011;20658;45.630;8.886;2023-07-13T00:59:35;16.58;;;5.07;;
34405;SDS011;20658;45.630;8.886;2023-07-13T01:02:13;17.17;;;5.70;;
34405;SDS011;20658;45.630;8.886;2023-07-13T01:04:47;15.93;;;6.10;;
34405;SDS011;20658;45.630;8.886;2023-07-13T01:07:21;10.52;;;4.63;;
34405;SDS011;20658;45.630;8.886;2023-07-13T01:09:57;14.50;;;6.18;;
34405;SDS011;20658;45.630;8.886;2023-07-13T01:12:31;13.18;;;4.78;;
34405;SDS011;20658;45.630;8.886;2023-07-13T01:15:05;11.50;;;4.85;;
34405;SDS011;20658;45.630;8.886;2023-07-13T01:18:12;12.70;;;4.80;;
34405;SDS011;20658;45.630;8.886;2023-07-13T01:20:52;16.27;;;4.68;;
34405;SDS011;20658;45.630;8.886;2023-07-13T01:23:27;13.25;;;4.05;;
34405;SDS011;20658;45.630;8.886;2023-07-13T01:26:02;9.48;;;4.18;;
34405;SDS011;20658;45.630;8.886;2023-07-13T01:28:36;11.43;;;4.88;;
34405;SDS011;20658;45.630;8.886;2023-07-13T01:31:11;11.38;;;4.15;;
34405;SDS011;20658;45.630;8.886;2023-07-13T01:33:45;11.85;;;4.82;;
34405;SDS011;20658;45.630;8.886;2023-07-13T01:36:21;8.60;;;4.47;;
34405;SDS011;20658;45.630;8.886;2023-07-13T01:38:55;8.85;;;4.50;;
34405;SDS011;20658;45.630;8.886;2023-07-13T01:41:28;11.65;;;4.30;;
34405;SDS011;20658;45.630;8.886;2023-07-13T01:44:02;8.43;;;3.67;;
34405;SDS011;20658;45.630;8.886;2023-07-13T01:46:36;13.77;;;6.03;;
34405;SDS011;20658;45.630;8.886;2023-07-13T01:49:10;8.27;;;4.78;;
34405;SDS011;20658;45.630;8.886;2023-07-13T01:51:45;13.27;;;5.78;;
34405;SDS011;20658;45.630;8.886;2023-07-13T01:54:13;13.82;;;5.65;;
34405;SDS011;20658;45.630;8.886;2023-07-13T01:56:49;14.43;;;6.30;;
34405;SDS011;20658;45.630;8.886;2023-07-13T01:59:23;19.42;;;9.18;;
34405;SDS011;20658;45.630;8.886;2023-07-13T02:01:56;15.80;;;8.65;;
34405;SDS011;20658;45.630;8.886;2023-07-13T02:04:30;17.17;;;9.23;;
34405;SDS011;20658;45.630;8.886;2023-07-13T02:07:00;19.58;;;9.02;;
34405;SDS011;20658;45.630;8.886;2023-07-13T02:09:29;20.83;;;8.48;;
34405;SDS011;20658;45.630;8.886;2023-07-13T02:12:03;17.83;;;8.23;;
34405;SDS011;20658;45.630;8.886;2023-07-13T02:14:37;24.77;;;13.07;;
34405;SDS011;20658;45.630;8.886;2023-07-13T02:17:11;26.73;;;13.52;;
34405;SDS011;20658;45.630;8.886;2023-07-13T02:19:45;26.42;;;13.70;;
34405;SDS011;20658;45.630;8.886;2023-07-13T02:22:15;27.38;;;13.75;;
34405;SDS011;20658;45.630;8.886;2023-07-13T02:24:49;17.70;;;9.13;;
34405;SDS011;20658;45.630;8.886;2023-07-13T02:27:18;17.10;;;9.50;;
34405;SDS011;20658;45.630;8.886;2023-07-13T02:29:51;19.35;;;10.45;;
34405;SDS011;20658;45.630;8.886;2023-07-13T02:32:21;19.48;;;10.20;;
34405;SDS011;20658;45.630;8.886;2023-07-13T02:34:51;19.00;;;8.80;;
34405;SDS011;20658;45.630;8.886;2023-07-13T02:37:22;21.42;;;9.93;;
34405;SDS011;20658;45.630;8.886;2023-07-13T02:39:51;19.23;;;9.57;;
34405;SDS011;20658;45.630;8.886;2023-07-13T02:42:25;19.58;;;9.80;;
34405;SDS011;20658;45.630;8.886;2023-07-13T02:44:54;18.08;;;8.18;;
34405;SDS011;20658;45.630;8.886;2023-07-13T02:47:23;17.25;;;8.30;;
34405;SDS011;20658;45.630;8.886;2023-07-13T02:49:56;14.27;;;8.00;;
34405;SDS011;20658;45.630;8.886;2023-07-13T02:52:26;17.50;;;7.40;;
34405;SDS011;20658;45.630;8.886;2023-07-13T02:55:00;12.85;;;7.75;;
34405;SDS011;20658;45.630;8.886;2023-07-13T02:57:34;18.70;;;8.38;;
34405;SDS011;20658;45.630;8.886;2023-07-13T03:00:08;15.65;;;7.30;;
34405;SDS011;20658;45.630;8.886;2023-07-13T03:02:43;16.60;;;8.75;;
34405;SDS011;20658;45.630;8.886;2023-07-13T03:05:12;13.63;;;7.28;;
34405;SDS011;20658;45.630;8.886;2023-07-13T03:07:47;18.95;;;8.52;;
34405;SDS011;20658;45.630;8.886;2023-07-13T03:10:21;20.60;;;8.80;;
34405;SDS011;20658;45.630;8.886;2023-07-13T03:12:50;14.27;;;7.97;;
34405;SDS011;20658;45.630;8.886;2023-07-13T03:15:23;14.35;;;8.00;;
34405;SDS011;20658;45.630;8.886;2023-07-13T03:17:53;19.63;;;8.55;;
34405;SDS011;20658;45.630;8.886;2023-07-13T03:20:27;18.13;;;8.52;;
34405;SDS011;20658;45.630;8.886;2023-07-13T03:23:03;19.33;;;8.07;;
34405;SDS011;20658;45.630;8.886;2023-07-13T03:25:32;21.65;;;9.07;;
34405;SDS011;20658;45.630;8.886;2023-07-13T03:28:06;15.20;;;7.93;;
34405;SDS011;20658;45.630;8.886;2023-07-13T03:30:41;13.95;;;7.40;;
34405;SDS011;20658;45.630;8.886;2023-07-13T03:33:10;18.40;;;8.57;;
34405;SDS011;20658;45.630;8.886;2023-07-13T03:35:44;16.45;;;7.70;;
34405;SDS011;20658;45.630;8.886;2023-07-13T03:38:14;17.63;;;8.30;;
34405;SDS011;20658;45.630;8.886;2023-07-13T03:40:48;16.85;;;9.13;;
34405;SDS011;20658;45.630;8.886;2023-07-13T03:43:22;17.63;;;8.73;;
34405;SDS011;20658;45.630;8.886;2023-07-13T03:45:55;16.27;;;8.57;;
34405;SDS011;20658;45.630;8.886;2023-07-13T03:48:28;19.08;;;9.77;;
34405;SDS011;20658;45.630;8.886;2023-07-13T03:51:02;17.95;;;7.95;;
34405;SDS011;20658;45.630;8.886;2023-07-13T03:53:37;15.60;;;7.72;;
34405;SDS011;20658;45.630;8.886;2023-07-13T03:56:14;16.42;;;7.90;;
34405;SDS011;20658;45.630;8.886;2023-07-13T03:58:50;14.80;;;7.65;;
34405;SDS011;20658;45.630;8.886;2023-07-13T04:01:24;13.32;;;6.32;;
34405;SDS011;20658;45.630;8.886;2023-07-13T04:03:57;13.90;;;6.18;;
34405;SDS011;20658;45.630;8.886;2023-07-13T04:06:31;15.75;;;6.53;;
34405;SDS011;20658;45.630;8.886;2023-07-13T04:09:03;14.13;;;6.35;;
34405;SDS011;20658;45.630;8.886;2023-07-13T04:11:37;15.50;;;5.57;;
34405;SDS011;20658;45.630;8.886;2023-07-13T04:14:11;15.10;;;5.63;;
34405;SDS011;20658;45.630;8.886;2023-07-13T04:16:40;13.10;;;4.95;;
34405;SDS011;20658;45.630;8.886;2023-07-13T04:19:14;14.35;;;6.88;;
34405;SDS011;20658;45.630;8.886;2023-07-13T04:21:48;17.05;;;10.20;;
34405;SDS011;20658;45.630;8.886;2023-07-13T04:24:18;27.05;;;17.77;;
34405;SDS011;20658;45.630;8.886;2023-07-13T04:26:51;26.17;;;18.92;;
34405;SDS011;20658;45.630;8.886;2023-07-13T04:29:25;28.13;;;17.10;;
34405;SDS011;20658;45.630;8.886;2023-07-13T04:31:58;27.90;;;19.88;;
34405;SDS011;20658;45.630;8.886;2023-07-13T04:34:32;28.98;;;21.30;;
34405;SDS011;20658;45.630;8.886;2023-07-13T04:37:06;28.00;;;19.38;;
34405;SDS011;20658;45.630;8.886;2023-07-13T04:39:41;24.17;;;17.73;;
34405;SDS011;20658;45.630;8.886;2023-07-13T04:42:14;24.98;;;15.75;;
34405;SDS011;20658;45.630;8.886;2023-07-13T04:44:48;23.80;;;14.77;;
34405;SDS011;20658;45.630;8.886;2023-07-13T04:47:22;21.17;;;12.73;;
34405;SDS011;20658;45.630;8.886;2023-07-13T04:49:55;14.25;;;9.13;;
34405;SDS011;20658;45.630;8.886;2023-07-13T04:52:29;22.20;;;10.00;;
34405;SDS011;20658;45.630;8.886;2023-07-13T04:55:06;25.55;;;13.13;;
34405;SDS011;20658;45.630;8.886;2023-07-13T04:57:40;28.63;;;14.40;;
34405;SDS011;20658;45.630;8.886;2023-07-13T05:00:09;25.92;;;12.50;;
34405;SDS011;20658;45.630;8.886;2023-07-13T05:02:44;21.70;;;10.27;;
34405;SDS011;20658;45.630;8.886;2023-07-13T05:05:18;22.00;;;7.65;;
34405;SDS011;20658;45.630;8.886;2023-07-13T05:07:51;14.77;;;5.50;;
34405;SDS011;20658;45.630;8.886;2023-07-13T05:10:26;11.50;;;4.78;;
34405;SDS011;20658;45.630;8.886;2023-07-13T05:13:00;13.73;;;4.10;;
34405;SDS011;20658;45.630;8.886;2023-07-13T05:15:34;10.73;;;4.18;;
34405;SDS011;20658;45.630;8.886;2023-07-13T05:18:08;10.15;;;3.15;;
34405;SDS011;20658;45.630;8.886;2023-07-13T05:20:41;13.18;;;3.47;;
34405;SDS011;20658;45.630;8.886;2023-07-13T05:23:15;6.32;;;3.25;;
34405;SDS011;20658;45.630;8.886;2023-07-13T05:25:49;11.77;;;3.20;;
34405;SDS011;20658;45.630;8.886;2023-07-13T05:28:23;11.02;;;3.28;;
34405;SDS011;20658;45.630;8.886;2023-07-13T05:30:57;14.90;;;3.13;;
34405;SDS011;20658;45.630;8.886;2023-07-13T05:33:30;8.02;;;3.38;;
34405;SDS011;20658;45.630;8.886;2023-07-13T05:36:04;10.43;;;3.78;;
34405;SDS011;20658;45.630;8.886;2023-07-13T05:38:57;12.45;;;4.70;;
34405;SDS011;20658;45.630;8.886;2023-07-13T05:41:50;13.95;;;4.70;;
34405;SDS011;20658;45.630;8.886;2023-07-13T05:44:29;11.85;;;5.25;;
34405;SDS011;20658;45.630;8.886;2023-07-13T05:47:03;15.07;;;4.55;;
34405;SDS011;20658;45.630;8.886;2023-07-13T05:49:37;10.65;;;4.50;;
34405;SDS011;20658;45.630;8.886;2023-07-13T05:52:11;11.40;;;4.60;;
34405;SDS011;20658;45.630;8.886;2023-07-13T05:54:44;8.93;;;4.43;;
34405;SDS011;20658;45.630;8.886;2023-07-13T05:57:19;7.30;;;3.40;;
34405;SDS011;20658;45.630;8.886;2023-07-13T05:59:52;8.98;;;3.47;;
34405;SDS011;20658;45.630;8.886;2023-07-13T06:02:27;8.50;;;2.90;;
34405;SDS011;20658;45.630;8.886;2023-07-13T06:05:00;8.82;;;3.65;;
34405;SDS011;20658;45.630;8.886;2023-07-13T06:07:34;10.40;;;3.45;;
34405;SDS011;20658;45.630;8.886;2023-07-13T06:10:08;9.57;;;2.58;;
34405;SDS011;20658;45.630;8.886;2023-07-13T06:12:43;10.52;;;3.28;;
34405;SDS011;20658;45.630;8.886;2023-07-13T06:15:17;9.15;;;3.65;;
34405;SDS011;20658;45.630;8.886;2023-07-13T06:17:50;6.72;;;2.72;;
34405;SDS011;20658;45.630;8.886;2023-07-13T06:20:24;7.90;;;2.25;;
34405;SDS011;20658;45.630;8.886;2023-07-13T06:22:57;5.65;;;2.17;;
34405;SDS011;20658;45.630;8.886;2023-07-13T06:25:31;7.97;;;2.50;;
34405;SDS011;20658;45.630;8.886;2023-07-13T06:28:06;9.02;;;2.22;;
34405;SDS011;20658;45.630;8.886;2023-07-13T06:30:39;16.83;;;2.95;;
34405;SDS011;20658;45.630;8.886;2023-07-13T06:33:12;14.15;;;2.78;;
34405;SDS011;20658;45.630;8.886;2023-07-13T06:35:46;13.90;;;2.47;;
34405;SDS011;20658;45.630;8.886;2023-07-13T06:38:19;7.90;;;2.58;;
34405;SDS011;20658;45.630;8.886;2023-07-13T06:40:53;3.45;;;1.80;;
34405;SDS011;20658;45.630;8.886;2023-07-13T06:43:28;7.95;;;2.35;;
34405;SDS011;20658;45.630;8.886;2023-07-13T06:46:03;6.75;;;2.08;;
34405;SDS011;20658;45.630;8.886;2023-07-13T06:48:36;9.55;;;1.70;;
34405;SDS011;20658;45.630;8.886;2023-07-13T06:51:10;5.55;;;1.73;;
34405;SDS011;20658;45.630;8.886;2023-07-13T06:53:43;6.97;;;2.58;;
34405;SDS011;20658;45.630;8.886;2023-07-13T06:56:17;4.60;;;2.03;;
34405;SDS011;20658;45.630;8.886;2023-07-13T06:58:52;5.35;;;2.25;;
34405;SDS011;20658;45.630;8.886;2023-07-13T07:01:26;5.95;;;1.55;;
34405;SDS011;20658;45.630;8.886;2023-07-13T07:03:59;6.97;;;1.80;;
34405;SDS011;20658;45.630;8.886;2023-07-13T07:06:33;9.05;;;1.90;;
34405;SDS011;20658;45.630;8.886;2023-07-13T07:09:07;6.68;;;1.98;;
34405;SDS011;20658;45.630;8.886;2023-07-13T07:11:40;9.10;;;2.00;;
34405;SDS011;20658;45.630;8.886;2023-07-13T07:14:15;5.20;;;1.88;;
34405;SDS011;20658;45.630;8.886;2023-07-13T07:16:44;7.95;;;1.85;;
34405;SDS011;20658;45.630;8.886;2023-07-13T07:19:17;11.68;;;2.10;;
34405;SDS011;20658;45.630;8.886;2023-07-13T07:21:51;7.25;;;1.77;;
34405;SDS011;20658;45.630;8.886;2023-07-13T07:24:25;6.28;;;1.90;;
34405;SDS011;20658;45.630;8.886;2023-07-13T07:26:58;5.97;;;2.05;;
34405;SDS011;20658;45.630;8.886;2023-07-13T07:29:33;6.45;;;1.88;;
34405;SDS011;20658;45.630;8.886;2023-07-13T07:32:09;6.13;;;1.75;;
34405;SDS011;20658;45.630;8.886;2023-07-13T07:34:42;4.82;;;1.60;;
34405;SDS011;20658;45.630;8.886;2023-07-13T07:37:16;6.70;;;1.77;;
34405;SDS011;20658;45.630;8.886;2023-07-13T07:39:50;6.32;;;1.70;;
34405;SDS011;20658;45.630;8.886;2023-07-13T07:42:23;5.65;;;1.85;;
34405;SDS011;20658;45.630;8.886;2023-07-13T07:44:53;4.32;;;1.52;;
34405;SDS011;20658;45.630;8.886;2023-07-13T07:47:27;6.63;;;1.48;;
34405;SDS011;20658;45.630;8.886;2023-07-13T07:50:00;4.80;;;1.60;;
34405;SDS011;20658;45.630;8.886;2023-07-13T07:52:35;4.50;;;1.45;;
34405;SDS011;20658;45.630;8.886;2023-07-13T07:55:09;6.10;;;2.05;;
34405;SDS011;20658;45.630;8.886;2023-07-13T07:57:42;6.25;;;1.60;;
34405;SDS011;20658;45.630;8.886;2023-07-13T08:00:17;4.90;;;1.40;;
34405;SDS011;20658;45.630;8.886;2023-07-13T08:02:51;5.57;;;2.10;;
34405;SDS011;20658;45.630;8.886;2023-07-13T08:05:20;7.95;;;2.33;;
34405;SDS011;20658;45.630;8.886;2023-07-13T08:07:53;7.85;;;1.70;;
34405;SDS011;20658;45.630;8.886;2023-07-13T08:10:28;3.50;;;1.50;;
34405;SDS011;20658;45.630;8.886;2023-07-13T08:13:01;4.50;;;1.60;;
34405;SDS011;20658;45.630;8.886;2023-07-13T08:15:36;3.22;;;1.73;;
34405;SDS011;20658;45.630;8.886;2023-07-13T08:18:10;5.88;;;1.83;;
34405;SDS011;20658;45.630;8.886;2023-07-13T08:20:43;8.27;;;2.90;;
34405;SDS011;20658;45.630;8.886;2023-07-13T08:23:17;7.45;;;1.83;;
34405;SDS011;20658;45.630;8.886;2023-07-13T08:25:51;6.85;;;1.98;;
34405;SDS011;20658;45.630;8.886;2023-07-13T08:28:25;6.57;;;1.48;;
34405;SDS011;20658;45.630;8.886;2023-07-13T08:31:01;6.63;;;1.65;;
34405;SDS011;20658;45.630;8.886;2023-07-13T08:33:35;5.40;;;1.75;;
34405;SDS011;20658;45.630;8.886;2023-07-13T08:36:09;5.57;;;2.10;;
34405;SDS011;20658;45.630;8.886;2023-07-13T08:38:43;6.45;;;1.70;;
34405;SDS011;20658;45.630;8.886;2023-07-13T08:41:17;7.43;;;2.20;;
34405;SDS011;20658;45.630;8.886;2023-07-13T08:43:52;6.72;;;1.80;;
34405;SDS011;20658;45.630;8.886;2023-07-13T08:46:32;7.97;;;2.17;;
34405;SDS011;20658;45.630;8.886;2023-07-13T08:49:09;6.18;;;2.00;;
34405;SDS011;20658;45.630;8.886;2023-07-13T08:51:48;6.80;;;2.42;;
34405;SDS011;20658;45.630;8.886;2023-07-13T08:54:27;6.32;;;2.25;;
34405;SDS011;20658;45.630;8.886;2023-07-13T08:57:09;7.30;;;2.28;;
34405;SDS011;20658;45.630;8.886;2023-07-13T08:59:41;7.43;;;2.28;;
34405;SDS011;20658;45.630;8.886;2023-07-13T09:02:19;9.68;;;2.45;;
34405;SDS011;20658;45.630;8.886;2023-07-13T09:04:59;7.72;;;2.25;;
34405;SDS011;20658;45.630;8.886;2023-07-13T09:07:39;10.10;;;2.47;;
34405;SDS011;20658;45.630;8.886;2023-07-13T09:10:31;6.60;;;2.80;;
34405;SDS011;20658;45.630;8.886;2023-07-13T09:13:18;5.65;;;2.33;;
34405;SDS011;20658;45.630;8.886;2023-07-13T09:16:01;8.77;;;2.50;;
34405;SDS011;20658;45.630;8.886;2023-07-13T09:18:39;9.10;;;2.72;;
34405;SDS011;20658;45.630;8.886;2023-07-13T09:21:18;10.23;;;2.33;;
34405;SDS011;20658;45.630;8.886;2023-07-13T09:23:59;7.95;;;2.20;;
34405;SDS011;20658;45.630;8.886;2023-07-13T09:26:55;4.95;;;1.90;;
34405;SDS011;20658;45.630;8.886;2023-07-13T09:29:31;6.82;;;2.28;;
34405;SDS011;20658;45.630;8.886;2023-07-13T09:32:07;7.25;;;1.90;;
34405;SDS011;20658;45.630;8.886;2023-07-13T09:34:45;10.80;;;2.60;;
34405;SDS011;20658;45.630;8.886;2023-07-13T09:37:28;12.77;;;2.40;;
34405;SDS011;20658;45.630;8.886;2023-07-13T09:40:07;6.88;;;2.30;;
34405;SDS011;20658;45.630;8.886;2023-07-13T09:43:02;6.32;;;2.53;;
34405;SDS011;20658;45.630;8.886;2023-07-13T09:45:38;13.38;;;2.60;;
34405;SDS011;20658;45.630;8.886;2023-07-13T09:48:12;7.30;;;2.58;;
34405;SDS011;20658;45.630;8.886;2023-07-13T09:50:48;10.13;;;2.58;;
34405;SDS011;20658;45.630;8.886;2023-07-13T09:53:27;8.77;;;2.22;;
34405;SDS011;20658;45.630;8.886;2023-07-13T09:56:04;14.80;;;3.10;;
34405;SDS011;20658;45.630;8.886;2023-07-13T09:58:52;10.77;;;2.28;;
34405;SDS011;20658;45.630;8.886;2023-07-13T10:01:33;5.53;;;2.15;;
34405;SDS011;20658;45.630;8.886;2023-07-13T10:04:11;10.60;;;2.67;;
34405;SDS011;20658;45.630;8.886;2023-07-13T10:06:47;6.75;;;2.83;;
34405;SDS011;20658;45.630;8.886;2023-07-13T10:09:20;7.47;;;2.58;;
34405;SDS011;20658;45.630;8.886;2023-07-13T10:11:55;5.85;;;2.05;;
34405;SDS011;20658;45.630;8.886;2023-07-13T10:14:28;7.00;;;2.17;;
34405;SDS011;20658;45.630;8.886;2023-07-13T10:17:02;5.07;;;2.70;;
34405;SDS011;20658;45.630;8.886;2023-07-13T10:19:38;8.18;;;2.78;;
34405;SDS011;20658;45.630;8.886;2023-07-13T10:22:19;8.88;;;2.58;;
34405;SDS011;20658;45.630;8.886;2023-07-13T10:24:59;7.18;;;2.40;;
34405;SDS011;20658;45.630;8.886;2023-07-13T10:27:29;6.88;;;2.45;;
34405;SDS011;20658;45.630;8.886;2023-07-13T10:30:09;8.73;;;2.65;;
34405;SDS011;20658;45.630;8.886;2023-07-13T10:32:49;7.05;;;2.65;;
34405;SDS011;20658;45.630;8.886;2023-07-13T10:35:23;11.90;;;2.90;;
34405;SDS011;20658;45.630;8.886;2023-07-13T10:38:03;7.68;;;2.97;;
34405;SDS011;20658;45.630;8.886;2023-07-13T10:40:41;7.50;;;2.93;;
34405;SDS011;20658;45.630;8.886;2023-07-13T10:43:29;7.63;;;2.53;;
34405;SDS011;20658;45.630;8.886;2023-07-13T10:46:10;11.13;;;3.20;;
34405;SDS011;20658;45.630;8.886;2023-07-13T10:48:48;9.95;;;3.35;;
34405;SDS011;20658;45.630;8.886;2023-07-13T10:51:25;9.80;;;3.08;;
34405;SDS011;20658;45.630;8.886;2023-07-13T10:54:18;9.70;;;2.95;;
34405;SDS011;20658;45.630;8.886;2023-07-13T10:57:14;11.77;;;2.88;;
34405;SDS011;20658;45.630;8.886;2023-07-13T11:02:55;8.88;;;3.35;;
34405;SDS011;20658;45.630;8.886;2023-07-13T11:05:32;9.98;;;3.75;;
34405;SDS011;20658;45.630;8.886;2023-07-13T11:08:13;6.95;;;3.40;;
34405;SDS011;20658;45.630;8.886;2023-07-13T11:10:55;15.27;;;3.90;;
34405;SDS011;20658;45.630;8.886;2023-07-13T11:16:35;18.17;;;4.32;;
34405;SDS011;20658;45.630;8.886;2023-07-13T11:22:12;20.67;;;5.13;;
34405;SDS011;20658;45.630;8.886;2023-07-13T11:24:50;14.10;;;5.22;;
34405;SDS011;20658;45.630;8.886;2023-07-13T11:27:41;15.80;;;6.10;;
34405;SDS011;20658;45.630;8.886;2023-07-13T11:33:17;15.85;;;6.78;;
34405;SDS011;20658;45.630;8.886;2023-07-13T11:35:58;14.80;;;6.07;;
34405;SDS011;20658;45.630;8.886;2023-07-13T11:38:37;14.23;;;6.45;;
34405;SDS011;20658;45.630;8.886;2023-07-13T11:41:14;18.13;;;7.30;;
34405;SDS011;20658;45.630;8.886;2023-07-13T11:43:55;21.42;;;8.32;;
34405;SDS011;20658;45.630;8.886;2023-07-13T11:46:44;20.13;;;8.13;;
34405;SDS011;20658;45.630;8.886;2023-07-13T11:49:20;12.93;;;7.38;;
34405;SDS011;20658;45.630;8.886;2023-07-13T11:51:55;15.30;;;6.53;;
34405;SDS011;20658;45.630;8.886;2023-07-13T11:54:31;12.10;;;5.15;;
34405;SDS011;20658;45.630;8.886;2023-07-13T11:57:19;17.20;;;5.60;;
34405;SDS011;20658;45.630;8.886;2023-07-13T12:00:03;16.30;;;5.45;;
34405;SDS011;20658;45.630;8.886;2023-07-13T12:02:47;21.55;;;5.30;;
34405;SDS011;20658;45.630;8.886;2023-07-13T12:05:23;15.57;;;5.93;;
34405;SDS011;20658;45.630;8.886;2023-07-13T12:07:56;13.18;;;5.00;;
34405;SDS011;20658;45.630;8.886;2023-07-13T12:10:30;12.38;;;5.43;;
34405;SDS011;20658;45.630;8.886;2023-07-13T12:13:05;10.05;;;5.03;;
34405;SDS011;20658;45.630;8.886;2023-07-13T12:15:40;14.32;;;5.53;;
34405;SDS011;20658;45.630;8.886;2023-07-13T12:18:19;13.82;;;5.60;;
34405;SDS011;20658;45.630;8.886;2023-07-13T12:20:55;12.27;;;5.40;;
34405;SDS011;20658;45.630;8.886;2023-07-13T12:23:32;15.30;;;5.43;;
34405;SDS011;20658;45.630;8.886;2023-07-13T12:26:07;13.75;;;5.22;;
34405;SDS011;20658;45.630;8.886;2023-07-13T12:28:45;16.40;;;5.93;;
34405;SDS011;20658;45.630;8.886;2023-07-13T12:31:30;15.75;;;6.25;;
34405;SDS011;20658;45.630;8.886;2023-07-13T12:34:08;19.90;;;8.40;;
34405;SDS011;20658;45.630;8.886;2023-07-13T12:36:46;15.52;;;4.68;;
34405;SDS011;20658;45.630;8.886;2023-07-13T12:39:22;14.00;;;4.90;;
34405;SDS011;20658;45.630;8.886;2023-07-13T12:42:09;14.35;;;5.85;;
34405;SDS011;20658;45.630;8.886;2023-07-13T12:44:56;17.05;;;5.22;;
34405;SDS011;20658;45.630;8.886;2023-07-13T12:47:40;14.43;;;5.45;;
34405;SDS011;20658;45.630;8.886;2023-07-13T12:50:17;12.30;;;5.43;;
34405;SDS011;20658;45.630;8.886;2023-07-13T12:52:54;13.73;;;5.53;;
34405;SDS011;20658;45.630;8.886;2023-07-13T12:55:41;13.20;;;5.80;;
34405;SDS011;20658;45.630;8.886;2023-07-13T12:58:28;16.48;;;6.57;;
34405;SDS011;20658;45.630;8.886;2023-07-13T13:01:05;16.58;;;6.32;;
34405;SDS011;20658;45.630;8.886;2023-07-13T13:03:45;13.77;;;7.03;;
34405;SDS011;20658;45.630;8.886;2023-07-13T13:06:24;12.25;;;6.18;;
34405;SDS011;20658;45.630;8.886;2023-07-13T13:09:00;12.65;;;5.63;;
34405;SDS011;20658;45.630;8.886;2023-07-13T13:11:35;13.38;;;5.07;;
34405;SDS011;20658;45.630;8.886;2023-07-13T13:14:09;11.43;;;4.95;;
34405;SDS011;20658;45.630;8.886;2023-07-13T13:16:46;13.57;;;5.15;;
34405;SDS011;20658;45.630;8.886;2023-07-13T13:19:24;22.08;;;5.90;;
34405;SDS011;20658;45.630;8.886;2023-07-13T13:22:00;15.18;;;4.70;;
34405;SDS011;20658;45.630;8.886;2023-07-13T13:24:34;17.15;;;5.40;;
34405;SDS011;20658;45.630;8.886;2023-07-13T13:27:16;10.80;;;4.57;;
34405;SDS011;20658;45.630;8.886;2023-07-13T13:32:26;11.63;;;5.22;;
34405;SDS011;20658;45.630;8.886;2023-07-13T13:35:01;12.23;;;5.22;;
34405;SDS011;20658;45.630;8.886;2023-07-13T13:37:34;16.92;;;5.22;;
34405;SDS011;20658;45.630;8.886;2023-07-13T13:40:13;12.63;;;5.28;;
34405;SDS011;20658;45.630;8.886;2023-07-13T13:42:48;14.65;;;4.68;;
34405;SDS011;20658;45.630;8.886;2023-07-13T13:45:24;13.38;;;5.40;;
34405;SDS011;20658;45.630;8.886;2023-07-13T13:47:58;15.23;;;6.25;;
34405;SDS011;20658;45.630;8.886;2023-07-13T13:50:34;11.60;;;5.82;;
34405;SDS011;20658;45.630;8.886;2023-07-13T13:53:09;15.23;;;5.70;;
34405;SDS011;20658;45.630;8.886;2023-07-13T13:55:45;11.93;;;5.28;;
34405;SDS011;20658;45.630;8.886;2023-07-13T13:58:18;15.93;;;5.95;;
34405;SDS011;20658;45.630;8.886;2023-07-13T14:00:52;11.57;;;5.30;;
34405;SDS011;20658;45.630;8.886;2023-07-13T14:03:26;11.32;;;4.50;;
34405;SDS011;20658;45.630;8.886;2023-07-13T14:06:01;14.85;;;4.80;;
34405;SDS011;20658;45.630;8.886;2023-07-13T14:08:34;14.57;;;5.45;;
34405;SDS011;20658;45.630;8.886;2023-07-13T14:11:03;13.80;;;4.38;;
34405;SDS011;20658;45.630;8.886;2023-07-13T14:13:37;13.13;;;4.70;;
34405;SDS011;20658;45.630;8.886;2023-07-13T14:16:16;15.35;;;5.10;;
34405;SDS011;20658;45.630;8.886;2023-07-13T14:18:52;13.13;;;4.75;;
34405;SDS011;20658;45.630;8.886;2023-07-13T14:21:29;12.93;;;5.13;;
34405;SDS011;20658;45.630;8.886;2023-07-13T14:24:03;11.27;;;4.82;;
34405;SDS011;20658;45.630;8.886;2023-07-13T14:26:37;13.27;;;5.45;;
34405;SDS011;20658;45.630;8.886;2023-07-13T14:29:14;9.90;;;4.38;;
34405;SDS011;20658;45.630;8.886;2023-07-13T14:31:50;13.98;;;4.32;;
34405;SDS011;20658;45.630;8.886;2023-07-13T14:34:24;12.20;;;4.78;;
34405;SDS011;20658;45.630;8.886;2023-07-13T14:36:59;9.18;;;3.78;;
34405;SDS011;20658;45.630;8.886;2023-07-13T14:39:32;10.30;;;4.40;;
34405;SDS011;20658;45.630;8.886;2023-07-13T14:42:08;12.25;;;4.07;;
34405;SDS011;20658;45.630;8.886;2023-07-13T14:44:42;9.32;;;4.00;;
34405;SDS011;20658;45.630;8.886;2023-07-13T14:47:16;10.93;;;4.05;;
34405;SDS011;20658;45.630;8.886;2023-07-13T14:49:51;9.98;;;3.60;;
34405;SDS011;20658;45.630;8.886;2023-07-13T14:52:26;14.23;;;4.20;;
34405;SDS011;20658;45.630;8.886;2023-07-13T14:54:59;10.07;;;3.70;;
34405;SDS011;20658;45.630;8.886;2023-07-13T14:57:32;11.80;;;3.63;;
34405;SDS011;20658;45.630;8.886;2023-07-13T15:00:12;9.10;;;4.10;;
34405;SDS011;20658;45.630;8.886;2023-07-13T15:05:25;15.13;;;4.70;;
34405;SDS011;20658;45.630;8.886;2023-07-13T15:08:02;9.73;;;3.30;;
34405;SDS011;20658;45.630;8.886;2023-07-13T15:10:37;11.13;;;3.70;;
34405;SDS011;20658;45.630;8.886;2023-07-13T15:13:17;8.00;;;3.42;;
34405;SDS011;20658;45.630;8.886;2023-07-13T15:15:53;7.82;;;3.13;;
34405;SDS011;20658;45.630;8.886;2023-07-13T15:18:26;7.95;;;3.13;;
34405;SDS011;20658;45.630;8.886;2023-07-13T15:21:01;9.93;;;3.50;;
34405;SDS011;20658;45.630;8.886;2023-07-13T15:23:36;14.23;;;3.80;;
34405;SDS011;20658;45.630;8.886;2023-07-13T15:26:11;9.75;;;3.30;;
34405;SDS011;20658;45.630;8.886;2023-07-13T15:28:46;9.02;;;3.20;;
34405;SDS011;20658;45.630;8.886;2023-07-13T15:31:19;9.30;;;3.03;;
34405;SDS011;20658;45.630;8.886;2023-07-13T15:33:55;7.70;;;3.20;;
34405;SDS011;20658;45.630;8.886;2023-07-13T15:36:30;7.70;;;3.42;;
34405;SDS011;20658;45.630;8.886;2023-07-13T15:39:06;11.13;;;3.53;;
34405;SDS011;20658;45.630;8.886;2023-07-13T15:41:41;10.05;;;3.08;;
34405;SDS011;20658;45.630;8.886;2023-07-13T15:44:21;14.77;;;3.92;;
34405;SDS011;20658;45.630;8.886;2023-07-13T15:46:58;16.25;;;4.03;;
34405;SDS011;20658;45.630;8.886;2023-07-13T15:49:34;13.75;;;3.00;;